sensor_id;sensor_type;location;lat;lon;timestamp;P1;durP1;ratioP1;P2;durP2;ratioP2
489;SDS011;231;48.120;11.576;2022-07-23T00:01:38;9.47;;;8.97;;
489;SDS011;231;48.120;11.576;2022-07-23T00:04:06;8.90;;;8.40;;
489;SDS011;231;48.120;11.576;2022-07-23T00:06:33;9.53;;;9.07;;
489;SDS011;231;48.120;11.576;2022-07-23T00:09:01;9.03;;;8.53;;
489;SDS011;231;48.120;11.576;2022-07-23T00:11:28;9.00;;;8.50;;
489;SDS011;231;48.120;11.576;2022-07-23T00:13:56;8.50;;;8.00;;
489;SDS011;231;48.120;11.576;2022-07-23T00:16:23;8.17;;;7.77;;
489;SDS011;231;48.120;11.576;2022-07-23T00:18:50;9.00;;;8.50;;
489;SDS011;231;48.120;11.576;2022-07-23T00:21:17;8.80;;;8.30;;
489;SDS011;231;48.120;11.576;2022-07-23T00:23:44;8.80;;;8.30;;
489;SDS011;231;48.120;11.576;2022-07-23T00:26:12;8.13;;;7.73;;
489;SDS011;231;48.120;11.576;2022-07-23T00:28:40;7.70;;;7.37;;
489;SDS011;231;48.120;11.576;2022-07-23T00:31:07;7.80;;;7.40;;
489;SDS011;231;48.120;11.576;2022-07-23T00:33:34;8.07;;;7.67;;
489;SDS011;231;48.120;11.576;2022-07-23T00:36:01;8.87;;;8.37;;
489;SDS011;231;48.120;11.576;2022-07-23T00:38:28;8.73;;;8.23;;
489;SDS011;231;48.120;11.576;2022-07-23T00:40:56;8.53;;;8.03;;
489;SDS011;231;48.120;11.576;2022-07-23T00:43:24;9.13;;;7.67;;
489;SDS011;231;48.120;11.576;2022-07-23T00:45:51;9.83;;;8.37;;
489;SDS011;231;48.120;11.576;2022-07-23T00:48:18;8.90;;;8.40;;
489;SDS011;231;48.120;11.576;2022-07-23T00:50:45;8.70;;;8.20;;
489;SDS011;231;48.120;11.576;2022-07-23T00:53:13;8.20;;;7.80;;
489;SDS011;231;48.120;11.576;2022-07-23T00:55:40;9.00;;;8.50;;
489;SDS011;231;48.120;11.576;2022-07-23T00:58:08;8.23;;;7.83;;
489;SDS011;231;48.120;11.576;2022-07-23T01:00:39;7.70;;;7.30;;
489;SDS011;231;48.120;11.576;2022-07-23T01:03:06;7.90;;;7.50;;
489;SDS011;231;48.120;11.576;2022-07-23T01:05:33;9.50;;;8.80;;
489;SDS011;231;48.120;11.576;2022-07-23T01:08:00;9.07;;;8.57;;
489;SDS011;231;48.120;11.576;2022-07-23T01:10:27;7.50;;;7.10;;
489;SDS011;231;48.120;11.576;2022-07-23T01:12:57;7.80;;;7.40;;
489;SDS011;231;48.120;11.576;2022-07-23T01:15:24;7.77;;;7.37;;
489;SDS011;231;48.120;11.576;2022-07-23T01:17:53;7.80;;;7.40;;
489;SDS011;231;48.120;11.576;2022-07-23T01:20:20;9.30;;;8.20;;
489;SDS011;231;48.120;11.576;2022-07-23T01:22:49;8.53;;;8.03;;
489;SDS011;231;48.120;11.576;2022-07-23T01:25:16;9.97;;;9.47;;
489;SDS011;231;48.120;11.576;2022-07-23T01:27:43;10.00;;;8.40;;
489;SDS011;231;48.120;11.576;2022-07-23T01:30:11;9.20;;;8.70;;
489;SDS011;231;48.120;11.576;2022-07-23T01:32:38;11.70;;;9.13;;
489;SDS011;231;48.120;11.576;2022-07-23T01:35:06;7.80;;;7.40;;
489;SDS011;231;48.120;11.576;2022-07-23T01:37:34;11.70;;;8.80;;
489;SDS011;231;48.120;11.576;2022-07-23T01:40:03;11.90;;;7.27;;
489;SDS011;231;48.120;11.576;2022-07-23T01:42:32;13.80;;;6.23;;
489;SDS011;231;48.120;11.576;2022-07-23T01:44:59;7.37;;;6.00;;
489;SDS011;231;48.120;11.576;2022-07-23T01:47:26;18.67;;;7.60;;
489;SDS011;231;48.120;11.576;2022-07-23T01:49:53;6.87;;;6.40;;
489;SDS011;231;48.120;11.576;2022-07-23T01:52:20;7.00;;;6.60;;
489;SDS011;231;48.120;11.576;2022-07-23T01:54:47;7.47;;;7.07;;
489;SDS011;231;48.120;11.576;2022-07-23T01:57:15;7.30;;;6.90;;
489;SDS011;231;48.120;11.576;2022-07-23T01:59:43;7.40;;;7.00;;
489;SDS011;231;48.120;11.576;2022-07-23T02:02:10;7.80;;;7.40;;
489;SDS011;231;48.120;11.576;2022-07-23T02:04:37;7.33;;;6.93;;
489;SDS011;231;48.120;11.576;2022-07-23T02:07:04;10.23;;;7.70;;
489;SDS011;231;48.120;11.576;2022-07-23T02:09:32;7.33;;;6.93;;
489;SDS011;231;48.120;11.576;2022-07-23T02:11:59;7.90;;;7.50;;
489;SDS011;231;48.120;11.576;2022-07-23T02:14:28;7.17;;;6.77;;
489;SDS011;231;48.120;11.576;2022-07-23T02:16:55;5.93;;;5.63;;
489;SDS011;231;48.120;11.576;2022-07-23T02:19:22;7.17;;;6.77;;
489;SDS011;231;48.120;11.576;2022-07-23T02:21:49;5.73;;;5.43;;
489;SDS011;231;48.120;11.576;2022-07-23T02:24:16;5.83;;;5.20;;
489;SDS011;231;48.120;11.576;2022-07-23T02:26:43;4.90;;;4.60;;
489;SDS011;231;48.120;11.576;2022-07-23T02:29:10;5.50;;;5.17;;
489;SDS011;231;48.120;11.576;2022-07-23T02:31:39;3.67;;;3.47;;
489;SDS011;231;48.120;11.576;2022-07-23T02:34:06;5.77;;;5.20;;
489;SDS011;231;48.120;11.576;2022-07-23T02:36:36;4.63;;;4.33;;
489;SDS011;231;48.120;11.576;2022-07-23T02:39:03;4.33;;;4.03;;
489;SDS011;231;48.120;11.576;2022-07-23T02:41:30;3.73;;;3.50;;
489;SDS011;231;48.120;11.576;2022-07-23T02:43:57;4.70;;;4.10;;
489;SDS011;231;48.120;11.576;2022-07-23T02:46:33;3.60;;;3.40;;
489;SDS011;231;48.120;11.576;2022-07-23T02:49:01;4.07;;;3.80;;
489;SDS011;231;48.120;11.576;2022-07-23T02:51:29;5.43;;;4.17;;
489;SDS011;231;48.120;11.576;2022-07-23T02:53:56;3.17;;;2.97;;
489;SDS011;231;48.120;11.576;2022-07-23T02:56:24;4.27;;;3.37;;
489;SDS011;231;48.120;11.576;2022-07-23T02:58:50;4.00;;;3.17;;
489;SDS011;231;48.120;11.576;2022-07-23T03:01:17;6.80;;;5.37;;
489;SDS011;231;48.120;11.576;2022-07-23T03:03:44;4.60;;;4.30;;
489;SDS011;231;48.120;11.576;2022-07-23T03:06:13;7.60;;;4.73;;
489;SDS011;231;48.120;11.576;2022-07-23T03:08:40;5.00;;;4.70;;
489;SDS011;231;48.120;11.576;2022-07-23T03:11:07;4.73;;;4.43;;
489;SDS011;231;48.120;11.576;2022-07-23T03:13:36;4.50;;;4.20;;
489;SDS011;231;48.120;11.576;2022-07-23T03:16:03;5.53;;;4.80;;
489;SDS011;231;48.120;11.576;2022-07-23T03:18:31;8.63;;;5.00;;
489;SDS011;231;48.120;11.576;2022-07-23T03:20:58;5.37;;;5.07;;
489;SDS011;231;48.120;11.576;2022-07-23T03:23:26;7.30;;;5.07;;
489;SDS011;231;48.120;11.576;2022-07-23T03:25:53;4.70;;;4.40;;
489;SDS011;231;48.120;11.576;2022-07-23T03:28:20;7.37;;;5.23;;
489;SDS011;231;48.120;11.576;2022-07-23T03:30:47;6.63;;;6.10;;
489;SDS011;231;48.120;11.576;2022-07-23T03:33:14;6.10;;;5.80;;
489;SDS011;231;48.120;11.576;2022-07-23T03:35:42;9.20;;;5.57;;
489;SDS011;231;48.120;11.576;2022-07-23T03:38:09;5.40;;;5.10;;
489;SDS011;231;48.120;11.576;2022-07-23T03:40:37;5.30;;;5.00;;
489;SDS011;231;48.120;11.576;2022-07-23T03:43:04;7.70;;;5.63;;
489;SDS011;231;48.120;11.576;2022-07-23T03:45:32;6.00;;;5.70;;
489;SDS011;231;48.120;11.576;2022-07-23T03:47:59;6.10;;;5.80;;
489;SDS011;231;48.120;11.576;2022-07-23T03:50:26;6.23;;;5.90;;
489;SDS011;231;48.120;11.576;2022-07-23T03:52:53;6.23;;;5.90;;
489;SDS011;231;48.120;11.576;2022-07-23T03:55:20;8.50;;;5.87;;
489;SDS011;231;48.120;11.576;2022-07-23T03:57:48;6.63;;;6.23;;
489;SDS011;231;48.120;11.576;2022-07-23T04:00:15;5.87;;;5.57;;
489;SDS011;231;48.120;11.576;2022-07-23T04:02:42;6.33;;;5.97;;
489;SDS011;231;48.120;11.576;2022-07-23T04:05:09;6.00;;;5.70;;
489;SDS011;231;48.120;11.576;2022-07-23T04:07:36;6.47;;;6.07;;
489;SDS011;231;48.120;11.576;2022-07-23T04:10:03;6.03;;;5.73;;
489;SDS011;231;48.120;11.576;2022-07-23T04:12:31;6.07;;;5.77;;
489;SDS011;231;48.120;11.576;2022-07-23T04:14:59;6.10;;;5.83;;
489;SDS011;231;48.120;11.576;2022-07-23T04:17:26;6.60;;;6.20;;
489;SDS011;231;48.120;11.576;2022-07-23T04:19:53;6.67;;;6.27;;
489;SDS011;231;48.120;11.576;2022-07-23T04:22:20;5.90;;;5.60;;
489;SDS011;231;48.120;11.576;2022-07-23T04:24:47;6.33;;;5.97;;
489;SDS011;231;48.120;11.576;2022-07-23T04:27:15;5.90;;;5.60;;
489;SDS011;231;48.120;11.576;2022-07-23T04:29:42;6.03;;;5.73;;
489;SDS011;231;48.120;11.576;2022-07-23T04:32:10;6.63;;;6.23;;
489;SDS011;231;48.120;11.576;2022-07-23T04:34:37;6.53;;;6.13;;
489;SDS011;231;48.120;11.576;2022-07-23T04:37:04;7.70;;;6.60;;
489;SDS011;231;48.120;11.576;2022-07-23T04:39:31;6.03;;;5.40;;
489;SDS011;231;48.120;11.576;2022-07-23T04:41:58;6.57;;;6.17;;
489;SDS011;231;48.120;11.576;2022-07-23T04:44:25;7.33;;;6.43;;
489;SDS011;231;48.120;11.576;2022-07-23T04:46:52;6.80;;;6.43;;
489;SDS011;231;48.120;11.576;2022-07-23T04:49:20;6.17;;;5.83;;
489;SDS011;231;48.120;11.576;2022-07-23T04:51:47;7.50;;;6.20;;
489;SDS011;231;48.120;11.576;2022-07-23T04:54:14;7.90;;;7.50;;
489;SDS011;231;48.120;11.576;2022-07-23T04:56:42;7.70;;;7.30;;
489;SDS011;231;48.120;11.576;2022-07-23T04:59:09;7.33;;;6.57;;
489;SDS011;231;48.120;11.576;2022-07-23T05:01:36;6.87;;;6.47;;
489;SDS011;231;48.120;11.576;2022-07-23T05:04:03;7.80;;;6.13;;
489;SDS011;231;48.120;11.576;2022-07-23T05:06:32;7.17;;;6.77;;
489;SDS011;231;48.120;11.576;2022-07-23T05:08:59;6.83;;;6.43;;
489;SDS011;231;48.120;11.576;2022-07-23T05:11:26;6.87;;;6.47;;
489;SDS011;231;48.120;11.576;2022-07-23T05:13:53;6.57;;;6.17;;
489;SDS011;231;48.120;11.576;2022-07-23T05:16:20;6.00;;;5.70;;
489;SDS011;231;48.120;11.576;2022-07-23T05:18:47;21.43;;;20.37;;
489;SDS011;231;48.120;11.576;2022-07-23T05:21:13;13.97;;;13.27;;
489;SDS011;231;48.120;11.576;2022-07-23T05:23:42;7.03;;;6.67;;
489;SDS011;231;48.120;11.576;2022-07-23T05:26:09;7.50;;;7.10;;
489;SDS011;231;48.120;11.576;2022-07-23T05:28:38;7.17;;;6.77;;
489;SDS011;231;48.120;11.576;2022-07-23T05:31:05;6.87;;;6.47;;
489;SDS011;231;48.120;11.576;2022-07-23T05:33:32;6.40;;;6.00;;
489;SDS011;231;48.120;11.576;2022-07-23T05:36:00;6.13;;;5.83;;
489;SDS011;231;48.120;11.576;2022-07-23T05:38:28;6.50;;;6.10;;
489;SDS011;231;48.120;11.576;2022-07-23T05:40:56;6.23;;;5.90;;
489;SDS011;231;48.120;11.576;2022-07-23T05:43:23;7.20;;;6.80;;
489;SDS011;231;48.120;11.576;2022-07-23T05:45:50;7.40;;;7.00;;
489;SDS011;231;48.120;11.576;2022-07-23T05:48:17;7.23;;;6.83;;
489;SDS011;231;48.120;11.576;2022-07-23T05:50:44;14.20;;;13.50;;
489;SDS011;231;48.120;11.576;2022-07-23T05:53:12;8.30;;;7.90;;
489;SDS011;231;48.120;11.576;2022-07-23T05:55:39;7.77;;;7.37;;
489;SDS011;231;48.120;11.576;2022-07-23T05:58:07;8.53;;;8.03;;
489;SDS011;231;48.120;11.576;2022-07-23T06:00:35;8.53;;;8.07;;
489;SDS011;231;48.120;11.576;2022-07-23T06:03:02;7.83;;;7.43;;
489;SDS011;231;48.120;11.576;2022-07-23T06:05:29;7.90;;;7.50;;
489;SDS011;231;48.120;11.576;2022-07-23T06:07:58;7.50;;;7.10;;
489;SDS011;231;48.120;11.576;2022-07-23T06:10:25;7.97;;;7.57;;
489;SDS011;231;48.120;11.576;2022-07-23T06:12:52;7.73;;;7.33;;
489;SDS011;231;48.120;11.576;2022-07-23T06:15:20;6.67;;;6.27;;
489;SDS011;231;48.120;11.576;2022-07-23T06:17:48;8.53;;;7.80;;
489;SDS011;231;48.120;11.576;2022-07-23T06:20:15;7.90;;;7.40;;
489;SDS011;231;48.120;11.576;2022-07-23T06:22:42;8.13;;;7.73;;
489;SDS011;231;48.120;11.576;2022-07-23T06:25:09;8.03;;;7.63;;
489;SDS011;231;48.120;11.576;2022-07-23T06:27:36;8.77;;;8.27;;
489;SDS011;231;48.120;11.576;2022-07-23T06:30:04;8.70;;;8.20;;
489;SDS011;231;48.120;11.576;2022-07-23T06:32:34;9.23;;;7.70;;
489;SDS011;231;48.120;11.576;2022-07-23T06:35:01;8.30;;;7.90;;
489;SDS011;231;48.120;11.576;2022-07-23T06:37:28;8.10;;;7.70;;
489;SDS011;231;48.120;11.576;2022-07-23T06:39:55;8.83;;;8.33;;
489;SDS011;231;48.120;11.576;2022-07-23T06:42:22;9.27;;;8.60;;
489;SDS011;231;48.120;11.576;2022-07-23T06:44:49;10.93;;;9.77;;
489;SDS011;231;48.120;11.576;2022-07-23T06:47:16;12.20;;;11.60;;
489;SDS011;231;48.120;11.576;2022-07-23T06:49:45;9.00;;;8.50;;
489;SDS011;231;48.120;11.576;2022-07-23T06:52:12;11.20;;;10.60;;
489;SDS011;231;48.120;11.576;2022-07-23T06:54:39;10.23;;;9.73;;
489;SDS011;231;48.120;11.576;2022-07-23T06:57:06;11.93;;;9.03;;
489;SDS011;231;48.120;11.576;2022-07-23T06:59:33;8.57;;;8.10;;
489;SDS011;231;48.120;11.576;2022-07-23T07:02:01;8.83;;;8.33;;
489;SDS011;231;48.120;11.576;2022-07-23T07:04:28;8.50;;;8.00;;
489;SDS011;231;48.120;11.576;2022-07-23T07:06:57;7.57;;;7.23;;
489;SDS011;231;48.120;11.576;2022-07-23T07:09:24;8.10;;;7.70;;
489;SDS011;231;48.120;11.576;2022-07-23T07:11:51;10.00;;;9.50;;
489;SDS011;231;48.120;11.576;2022-07-23T07:14:18;9.33;;;8.83;;
489;SDS011;231;48.120;11.576;2022-07-23T07:16:45;10.60;;;10.00;;
489;SDS011;231;48.120;11.576;2022-07-23T07:19:12;9.07;;;8.33;;
489;SDS011;231;48.120;11.576;2022-07-23T07:21:39;10.40;;;9.90;;
489;SDS011;231;48.120;11.576;2022-07-23T07:24:08;10.57;;;10.00;;
489;SDS011;231;48.120;11.576;2022-07-23T07:26:35;11.87;;;11.27;;
489;SDS011;231;48.120;11.576;2022-07-23T07:29:03;17.37;;;16.33;;
489;SDS011;231;48.120;11.576;2022-07-23T07:31:31;9.70;;;9.20;;
489;SDS011;231;48.120;11.576;2022-07-23T07:33:58;8.37;;;7.93;;
489;SDS011;231;48.120;11.576;2022-07-23T07:36:25;9.73;;;9.23;;
489;SDS011;231;48.120;11.576;2022-07-23T07:38:52;11.93;;;11.33;;
489;SDS011;231;48.120;11.576;2022-07-23T07:41:21;12.10;;;11.50;;
489;SDS011;231;48.120;11.576;2022-07-23T07:43:49;13.37;;;12.67;;
489;SDS011;231;48.120;11.576;2022-07-23T07:46:16;9.57;;;8.50;;
489;SDS011;231;48.120;11.576;2022-07-23T07:48:44;8.20;;;7.80;;
489;SDS011;231;48.120;11.576;2022-07-23T07:51:11;9.37;;;8.87;;
489;SDS011;231;48.120;11.576;2022-07-23T07:53:38;11.00;;;10.40;;
489;SDS011;231;48.120;11.576;2022-07-23T07:56:05;9.60;;;8.40;;
489;SDS011;231;48.120;11.576;2022-07-23T07:58:34;9.10;;;8.60;;
489;SDS011;231;48.120;11.576;2022-07-23T08:01:01;12.53;;;11.90;;
489;SDS011;231;48.120;11.576;2022-07-23T08:03:28;10.87;;;10.27;;
489;SDS011;231;48.120;11.576;2022-07-23T08:05:55;10.67;;;10.07;;
489;SDS011;231;48.120;11.576;2022-07-23T08:08:22;10.87;;;10.27;;
489;SDS011;231;48.120;11.576;2022-07-23T08:10:50;8.47;;;7.97;;
489;SDS011;231;48.120;11.576;2022-07-23T08:13:17;9.03;;;8.53;;
489;SDS011;231;48.120;11.576;2022-07-23T08:15:45;12.57;;;11.70;;
489;SDS011;231;48.120;11.576;2022-07-23T08:18:12;8.60;;;8.10;;
489;SDS011;231;48.120;11.576;2022-07-23T08:20:39;9.87;;;9.37;;
489;SDS011;231;48.120;11.576;2022-07-23T08:23:07;11.97;;;11.37;;
489;SDS011;231;48.120;11.576;2022-07-23T08:25:35;8.00;;;7.60;;
489;SDS011;231;48.120;11.576;2022-07-23T08:28:04;9.10;;;8.60;;
489;SDS011;231;48.120;11.576;2022-07-23T08:30:32;9.47;;;8.60;;
489;SDS011;231;48.120;11.576;2022-07-23T08:33:03;11.00;;;10.40;;
489;SDS011;231;48.120;11.576;2022-07-23T08:35:33;10.30;;;9.80;;
489;SDS011;231;48.120;11.576;2022-07-23T08:38:01;11.50;;;10.90;;
489;SDS011;231;48.120;11.576;2022-07-23T08:40:30;8.00;;;7.60;;
489;SDS011;231;48.120;11.576;2022-07-23T08:42:59;8.40;;;7.83;;
489;SDS011;231;48.120;11.576;2022-07-23T08:45:28;8.90;;;8.40;;
489;SDS011;231;48.120;11.576;2022-07-23T08:47:55;8.00;;;7.60;;
489;SDS011;231;48.120;11.576;2022-07-23T08:50:26;8.43;;;7.87;;
489;SDS011;231;48.120;11.576;2022-07-23T08:52:53;7.90;;;7.50;;
489;SDS011;231;48.120;11.576;2022-07-23T08:55:23;8.50;;;8.00;;
489;SDS011;231;48.120;11.576;2022-07-23T08:57:51;7.93;;;7.53;;
489;SDS011;231;48.120;11.576;2022-07-23T09:00:20;9.57;;;9.07;;
489;SDS011;231;48.120;11.576;2022-07-23T09:02:48;8.77;;;8.27;;
489;SDS011;231;48.120;11.576;2022-07-23T09:05:16;8.10;;;7.70;;
489;SDS011;231;48.120;11.576;2022-07-23T09:08:05;8.63;;;8.13;;
489;SDS011;231;48.120;11.576;2022-07-23T09:10:42;8.57;;;8.07;;
489;SDS011;231;48.120;11.576;2022-07-23T09:13:22;8.10;;;7.70;;
489;SDS011;231;48.120;11.576;2022-07-23T09:16:00;8.87;;;8.37;;
489;SDS011;231;48.120;11.576;2022-07-23T09:18:31;9.53;;;9.07;;
489;SDS011;231;48.120;11.576;2022-07-23T09:21:10;8.53;;;8.03;;
489;SDS011;231;48.120;11.576;2022-07-23T09:23:44;8.50;;;8.00;;
489;SDS011;231;48.120;11.576;2022-07-23T09:26:19;7.97;;;7.57;;
489;SDS011;231;48.120;11.576;2022-07-23T09:28:55;9.53;;;9.03;;
489;SDS011;231;48.120;11.576;2022-07-23T09:31:23;7.93;;;7.53;;
489;SDS011;231;48.120;11.576;2022-07-23T09:33:51;7.80;;;7.40;;
489;SDS011;231;48.120;11.576;2022-07-23T09:36:35;9.20;;;7.80;;
489;SDS011;231;48.120;11.576;2022-07-23T09:39:04;9.10;;;8.60;;
489;SDS011;231;48.120;11.576;2022-07-23T09:41:36;8.17;;;7.80;;
489;SDS011;231;48.120;11.576;2022-07-23T09:44:09;7.80;;;7.40;;
489;SDS011;231;48.120;11.576;2022-07-23T09:46:38;7.17;;;6.77;;
489;SDS011;231;48.120;11.576;2022-07-23T09:49:11;7.77;;;7.37;;
489;SDS011;231;48.120;11.576;2022-07-23T09:51:43;7.20;;;6.80;;
489;SDS011;231;48.120;11.576;2022-07-23T09:54:21;6.83;;;6.43;;
489;SDS011;231;48.120;11.576;2022-07-23T09:56:58;8.10;;;7.70;;
489;SDS011;231;48.120;11.576;2022-07-23T09:59:27;8.23;;;7.80;;
489;SDS011;231;48.120;11.576;2022-07-23T10:01:56;7.50;;;7.10;;
489;SDS011;231;48.120;11.576;2022-07-23T10:04:25;8.00;;;6.93;;
489;SDS011;231;48.120;11.576;2022-07-23T10:06:54;6.90;;;6.50;;
489;SDS011;231;48.120;11.576;2022-07-23T10:09:26;7.20;;;5.80;;
489;SDS011;231;48.120;11.576;2022-07-23T10:11:57;7.40;;;7.00;;
489;SDS011;231;48.120;11.576;2022-07-23T10:14:55;7.93;;;7.10;;
489;SDS011;231;48.120;11.576;2022-07-23T10:17:23;9.13;;;8.40;;
489;SDS011;231;48.120;11.576;2022-07-23T10:19:53;6.00;;;5.70;;
489;SDS011;231;48.120;11.576;2022-07-23T10:22:22;6.47;;;6.10;;
489;SDS011;231;48.120;11.576;2022-07-23T10:25:03;8.83;;;5.77;;
489;SDS011;231;48.120;11.576;2022-07-23T10:27:39;6.90;;;6.50;;
489;SDS011;231;48.120;11.576;2022-07-23T10:30:28;7.50;;;6.33;;
489;SDS011;231;48.120;11.576;2022-07-23T10:33:09;6.73;;;6.33;;
489;SDS011;231;48.120;11.576;2022-07-23T10:35:46;6.53;;;6.13;;
489;SDS011;231;48.120;11.576;2022-07-23T10:38:19;7.17;;;6.77;;
489;SDS011;231;48.120;11.576;2022-07-23T10:40:56;10.30;;;7.73;;
489;SDS011;231;48.120;11.576;2022-07-23T10:43:24;6.47;;;6.07;;
489;SDS011;231;48.120;11.576;2022-07-23T10:45:52;6.93;;;6.53;;
489;SDS011;231;48.120;11.576;2022-07-23T10:48:20;7.07;;;6.67;;
489;SDS011;231;48.120;11.576;2022-07-23T11:02:41;6.70;;;6.30;;
489;SDS011;231;48.120;11.576;2022-07-23T11:05:11;6.90;;;6.50;;
489;SDS011;231;48.120;11.576;2022-07-23T11:10:38;6.87;;;6.47;;
489;SDS011;231;48.120;11.576;2022-07-23T11:13:25;7.07;;;6.67;;
489;SDS011;231;48.120;11.576;2022-07-23T11:16:06;5.87;;;5.57;;
489;SDS011;231;48.120;11.576;2022-07-23T11:18:56;7.47;;;6.70;;
489;SDS011;231;48.120;11.576;2022-07-23T11:21:45;6.87;;;6.47;;
489;SDS011;231;48.120;11.576;2022-07-23T11:24:14;7.83;;;7.43;;
489;SDS011;231;48.120;11.576;2022-07-23T11:26:50;6.90;;;6.50;;
489;SDS011;231;48.120;11.576;2022-07-23T11:29:41;7.60;;;7.20;;
489;SDS011;231;48.120;11.576;2022-07-23T11:35:06;7.37;;;6.97;;
489;SDS011;231;48.120;11.576;2022-07-23T11:37:49;6.97;;;6.57;;
489;SDS011;231;48.120;11.576;2022-07-23T11:40:19;7.47;;;6.53;;
489;SDS011;231;48.120;11.576;2022-07-23T11:42:51;7.80;;;7.40;;
489;SDS011;231;48.120;11.576;2022-07-23T11:45:20;10.30;;;7.30;;
489;SDS011;231;48.120;11.576;2022-07-23T11:47:48;9.43;;;8.93;;
489;SDS011;231;48.120;11.576;2022-07-23T11:50:16;9.73;;;9.23;;
489;SDS011;231;48.120;11.576;2022-07-23T11:52:43;7.80;;;7.40;;
489;SDS011;231;48.120;11.576;2022-07-23T11:55:11;8.83;;;8.33;;
489;SDS011;231;48.120;11.576;2022-07-23T11:57:41;9.33;;;8.83;;
489;SDS011;231;48.120;11.576;2022-07-23T12:00:10;11.00;;;10.40;;
489;SDS011;231;48.120;11.576;2022-07-23T12:02:39;10.63;;;10.03;;
489;SDS011;231;48.120;11.576;2022-07-23T12:05:07;8.53;;;7.90;;
489;SDS011;231;48.120;11.576;2022-07-23T12:07:39;8.43;;;7.93;;
489;SDS011;231;48.120;11.576;2022-07-23T12:10:09;8.77;;;8.27;;
489;SDS011;231;48.120;11.576;2022-07-23T12:12:37;8.60;;;8.10;;
489;SDS011;231;48.120;11.576;2022-07-23T12:15:07;7.83;;;7.43;;
489;SDS011;231;48.120;11.576;2022-07-23T12:17:35;7.43;;;7.00;;
489;SDS011;231;48.120;11.576;2022-07-23T12:20:04;8.03;;;7.63;;
489;SDS011;231;48.120;11.576;2022-07-23T12:22:34;8.80;;;8.30;;
489;SDS011;231;48.120;11.576;2022-07-23T12:25:05;7.00;;;6.60;;
489;SDS011;231;48.120;11.576;2022-07-23T12:27:34;6.90;;;6.50;;
489;SDS011;231;48.120;11.576;2022-07-23T12:30:15;8.60;;;8.10;;
489;SDS011;231;48.120;11.576;2022-07-23T12:32:45;8.17;;;7.77;;
489;SDS011;231;48.120;11.576;2022-07-23T12:35:14;15.20;;;8.93;;
489;SDS011;231;48.120;11.576;2022-07-23T12:37:43;10.30;;;9.80;;
489;SDS011;231;48.120;11.576;2022-07-23T12:40:20;7.50;;;7.10;;
489;SDS011;231;48.120;11.576;2022-07-23T12:42:52;7.43;;;7.03;;
489;SDS011;231;48.120;11.576;2022-07-23T12:45:20;9.53;;;7.43;;
489;SDS011;231;48.120;11.576;2022-07-23T12:50:33;10.30;;;7.53;;
489;SDS011;231;48.120;11.576;2022-07-23T12:53:03;7.70;;;7.30;;
489;SDS011;231;48.120;11.576;2022-07-23T12:55:32;12.37;;;6.43;;
489;SDS011;231;48.120;11.576;2022-07-23T12:58:06;7.40;;;7.00;;
489;SDS011;231;48.120;11.576;2022-07-23T13:03:32;8.83;;;8.33;;
489;SDS011;231;48.120;11.576;2022-07-23T13:06:01;8.43;;;7.23;;
489;SDS011;231;48.120;11.576;2022-07-23T13:08:30;7.90;;;7.50;;
489;SDS011;231;48.120;11.576;2022-07-23T13:11:00;7.90;;;7.50;;
489;SDS011;231;48.120;11.576;2022-07-23T13:13:28;9.10;;;8.60;;
489;SDS011;231;48.120;11.576;2022-07-23T13:15:57;7.20;;;6.80;;
489;SDS011;231;48.120;11.576;2022-07-23T13:18:25;8.13;;;7.73;;
489;SDS011;231;48.120;11.576;2022-07-23T13:20:52;7.20;;;6.80;;
489;SDS011;231;48.120;11.576;2022-07-23T13:23:19;9.73;;;8.30;;
489;SDS011;231;48.120;11.576;2022-07-23T13:25:47;7.07;;;6.70;;
489;SDS011;231;48.120;11.576;2022-07-23T13:28:16;8.27;;;7.70;;
489;SDS011;231;48.120;11.576;2022-07-23T13:30:44;8.20;;;7.80;;
489;SDS011;231;48.120;11.576;2022-07-23T13:33:14;9.00;;;8.50;;
489;SDS011;231;48.120;11.576;2022-07-23T13:35:41;9.10;;;8.60;;
489;SDS011;231;48.120;11.576;2022-07-23T13:38:09;10.53;;;9.60;;
489;SDS011;231;48.120;11.576;2022-07-23T13:40:36;9.70;;;9.20;;
489;SDS011;231;48.120;11.576;2022-07-23T13:43:07;9.17;;;7.77;;
489;SDS011;231;48.120;11.576;2022-07-23T13:45:37;9.27;;;8.77;;
489;SDS011;231;48.120;11.576;2022-07-23T13:48:05;7.57;;;7.17;;
489;SDS011;231;48.120;11.576;2022-07-23T13:50:32;8.50;;;8.00;;
489;SDS011;231;48.120;11.576;2022-07-23T13:53:00;8.00;;;7.60;;
489;SDS011;231;48.120;11.576;2022-07-23T13:55:28;7.90;;;7.50;;
489;SDS011;231;48.120;11.576;2022-07-23T13:57:55;8.33;;;7.40;;
489;SDS011;231;48.120;11.576;2022-07-23T14:00:23;7.57;;;7.17;;
489;SDS011;231;48.120;11.576;2022-07-23T14:02:51;13.93;;;13.23;;
489;SDS011;231;48.120;11.576;2022-07-23T14:05:19;10.90;;;10.33;;
489;SDS011;231;48.120;11.576;2022-07-23T14:07:46;10.30;;;8.80;;
489;SDS011;231;48.120;11.576;2022-07-23T14:10:15;10.40;;;9.87;;
489;SDS011;231;48.120;11.576;2022-07-23T14:12:43;9.90;;;9.40;;
489;SDS011;231;48.120;11.576;2022-07-23T14:15:10;8.83;;;8.33;;
489;SDS011;231;48.120;11.576;2022-07-23T14:17:39;9.97;;;9.47;;
489;SDS011;231;48.120;11.576;2022-07-23T14:20:09;12.00;;;11.40;;
489;SDS011;231;48.120;11.576;2022-07-23T14:22:37;9.10;;;8.60;;
489;SDS011;231;48.120;11.576;2022-07-23T14:25:05;10.57;;;10.00;;
489;SDS011;231;48.120;11.576;2022-07-23T14:27:33;8.57;;;8.07;;
489;SDS011;231;48.120;11.576;2022-07-23T14:30:02;8.43;;;7.97;;
489;SDS011;231;48.120;11.576;2022-07-23T14:32:30;8.30;;;7.87;;
489;SDS011;231;48.120;11.576;2022-07-23T14:34:57;8.80;;;8.30;;
489;SDS011;231;48.120;11.576;2022-07-23T14:37:27;8.90;;;8.40;;
489;SDS011;231;48.120;11.576;2022-07-23T14:39:54;7.97;;;7.57;;
489;SDS011;231;48.120;11.576;2022-07-23T14:42:21;8.20;;;7.80;;
489;SDS011;231;48.120;11.576;2022-07-23T14:44:48;10.70;;;8.63;;
489;SDS011;231;48.120;11.576;2022-07-23T14:47:15;8.60;;;8.10;;
489;SDS011;231;48.120;11.576;2022-07-23T14:49:45;8.03;;;7.63;;
489;SDS011;231;48.120;11.576;2022-07-23T14:52:12;7.87;;;7.47;;
489;SDS011;231;48.120;11.576;2022-07-23T14:54:40;7.60;;;7.20;;
489;SDS011;231;48.120;11.576;2022-07-23T14:57:07;9.73;;;9.20;;
489;SDS011;231;48.120;11.576;2022-07-23T14:59:35;9.47;;;8.97;;
489;SDS011;231;48.120;11.576;2022-07-23T15:02:02;9.43;;;8.93;;
489;SDS011;231;48.120;11.576;2022-07-23T15:04:28;7.70;;;7.30;;
489;SDS011;231;48.120;11.576;2022-07-23T15:06:55;9.77;;;9.27;;
489;SDS011;231;48.120;11.576;2022-07-23T15:09:22;9.00;;;8.10;;
489;SDS011;231;48.120;11.576;2022-07-23T15:11:51;9.67;;;9.17;;
489;SDS011;231;48.120;11.576;2022-07-23T15:14:18;10.10;;;9.60;;
489;SDS011;231;48.120;11.576;2022-07-23T15:16:45;8.30;;;7.90;;
489;SDS011;231;48.120;11.576;2022-07-23T15:19:11;9.10;;;8.60;;
489;SDS011;231;48.120;11.576;2022-07-23T15:21:38;9.20;;;8.70;;
489;SDS011;231;48.120;11.576;2022-07-23T15:24:06;8.50;;;8.00;;
489;SDS011;231;48.120;11.576;2022-07-23T15:26:33;10.07;;;9.57;;
489;SDS011;231;48.120;11.576;2022-07-23T15:29:01;8.93;;;8.23;;
489;SDS011;231;48.120;11.576;2022-07-23T15:31:31;10.07;;;9.57;;
489;SDS011;231;48.120;11.576;2022-07-23T15:33:58;15.87;;;15.07;;
489;SDS011;231;48.120;11.576;2022-07-23T15:36:25;12.87;;;12.17;;
489;SDS011;231;48.120;11.576;2022-07-23T15:38:52;9.77;;;9.27;;
489;SDS011;231;48.120;11.576;2022-07-23T15:41:19;8.60;;;8.10;;
489;SDS011;231;48.120;11.576;2022-07-23T15:43:46;9.40;;;8.90;;
489;SDS011;231;48.120;11.576;2022-07-23T15:46:15;9.17;;;8.67;;
489;SDS011;231;48.120;11.576;2022-07-23T15:48:43;9.23;;;8.73;;
489;SDS011;231;48.120;11.576;2022-07-23T15:51:10;9.60;;;9.10;;
489;SDS011;231;48.120;11.576;2022-07-23T15:53:37;9.30;;;8.80;;
489;SDS011;231;48.120;11.576;2022-07-23T15:56:04;10.00;;;9.50;;
489;SDS011;231;48.120;11.576;2022-07-23T15:58:32;10.30;;;9.80;;
489;SDS011;231;48.120;11.576;2022-07-23T16:00:59;9.10;;;8.60;;